Time;durP1;ratioP1;P1;durP2;ratioP2;P2;SDS_P1;SDS_P2;PMS_P1;PMS_P2;Temp;Humidity;BMP_temperature;BMP_pressure;BME280_temperature;BME280_humidity;BME280_pressure;Samples;Min_cycle;Max_cycle;Signal;HPM_P1;HPM_P2
2021/08/14 00:01:36;;;;;;;7.87;6.93;;;18.00;99.90;;;;;;5058612;28;20550;-71
2021/08/14 00:04:02;;;;;;;9.70;7.77;;;18.10;99.90;;;;;;5059378;28;20663;-70
2021/08/14 00:06:27;;;;;;;12.40;7.07;;;18.00;99.90;;;;;;5056826;28;20624;-71
2021/08/14 00:08:53;;;;;;;10.00;6.67;;;18.00;99.90;;;;;;5056507;28;20687;-70
2021/08/14 00:11:18;;;;;;;7.50;6.40;;;18.00;99.90;;;;;;5044752;28;20204;-70
2021/08/14 00:13:44;;;;;;;12.60;6.53;;;17.90;99.90;;;;;;5076809;28;20190;-70
2021/08/14 00:16:09;;;;;;;8.27;6.53;;;17.90;99.90;;;;;;5075993;28;20561;-70
2021/08/14 00:18:35;;;;;;;10.20;7.20;;;17.90;99.90;;;;;;5076440;28;20275;-70
2021/08/14 00:21:02;;;;;;;8.20;7.30;;;17.60;99.90;;;;;;5076369;28;20173;-71
2021/08/14 00:23:27;;;;;;;9.37;6.87;;;17.60;99.90;;;;;;5056590;28;20228;-70
2021/08/14 00:25:55;;;;;;;6.60;5.93;;;17.60;99.90;;;;;;5056172;28;20460;-71
2021/08/14 00:28:20;;;;;;;9.97;7.47;;;17.60;99.90;;;;;;5056650;28;20182;-71
2021/08/14 00:30:46;;;;;;;14.63;7.10;;;17.70;99.90;;;;;;5056407;28;20943;-69
2021/08/14 00:33:11;;;;;;;8.80;7.90;;;17.70;99.90;;;;;;5056999;28;20412;-69
2021/08/14 00:35:38;;;;;;;7.23;6.53;;;17.60;99.90;;;;;;5056073;28;20170;-70
2021/08/14 00:38:03;;;;;;;9.57;6.70;;;17.60;99.90;;;;;;5056254;28;20162;-70
2021/08/14 00:40:29;;;;;;;8.93;6.97;;;17.50;99.90;;;;;;5055839;28;20999;-71
2021/08/14 00:42:55;;;;;;;7.73;6.47;;;17.60;99.90;;;;;;5057096;28;20194;-70
2021/08/14 00:45:20;;;;;;;8.30;6.90;;;17.60;99.90;;;;;;5055204;28;20257;-70
2021/08/14 00:47:46;;;;;;;11.13;7.20;;;17.70;99.90;;;;;;5055864;28;20174;-69
2021/08/14 00:50:12;;;;;;;9.10;7.30;;;17.60;99.90;;;;;;5056241;28;20190;-69
2021/08/14 00:52:38;;;;;;;9.37;6.80;;;17.60;99.90;;;;;;5056019;28;20428;-70
2021/08/14 00:55:04;;;;;;;8.50;7.50;;;17.60;99.90;;;;;;5056992;28;20186;-70
2021/08/14 00:57:30;;;;;;;8.20;6.80;;;17.60;99.90;;;;;;5056150;28;20408;-70
2021/08/14 00:59:56;;;;;;;9.47;6.80;;;17.70;99.90;;;;;;5055117;28;20435;-70
2021/08/14 01:02:22;;;;;;;13.17;8.20;;;17.60;99.90;;;;;;5038916;28;20200;-72
2021/08/14 01:04:51;;;;;;;9.80;7.83;;;17.40;99.90;;;;;;5056635;28;20809;-69
2021/08/14 01:07:18;;;;;;;10.30;7.30;;;17.20;99.90;;;;;;5056200;28;20447;-69
2021/08/14 01:09:45;;;;;;;8.40;7.50;;;17.20;99.90;;;;;;5055444;28;20404;-70
2021/08/14 01:12:15;;;;;;;9.13;7.10;;;17.20;99.90;;;;;;5056292;28;20213;-71
2021/08/14 01:14:41;;;;;;;10.17;7.93;;;17.20;99.90;;;;;;5055490;28;20783;-70
2021/08/14 01:17:07;;;;;;;13.17;7.87;;;17.20;99.90;;;;;;5055778;28;20420;-70
2021/08/14 01:19:32;;;;;;;9.93;8.57;;;17.20;99.90;;;;;;5038087;28;20181;-70
2021/08/14 01:21:58;;;;;;;9.53;7.60;;;17.10;99.90;;;;;;5037984;28;20630;-70
2021/08/14 01:24:24;;;;;;;8.50;6.90;;;17.00;99.90;;;;;;5056168;28;20556;-71
2021/08/14 01:26:50;;;;;;;11.50;8.20;;;16.90;99.90;;;;;;5049895;28;20428;-70
2021/08/14 01:29:16;;;;;;;7.93;6.50;;;16.90;99.90;;;;;;5075828;28;20174;-70
2021/08/14 01:31:42;;;;;;;8.40;7.30;;;16.90;99.90;;;;;;5073569;28;20527;-71
2021/08/14 01:34:09;;;;;;;8.50;6.57;;;17.00;99.90;;;;;;5074830;28;20432;-71
2021/08/14 01:36:34;;;;;;;10.83;8.00;;;17.00;99.90;;;;;;5072188;28;20493;-70
2021/08/14 01:39:02;;;;;;;10.50;7.60;;;17.10;99.90;;;;;;5075335;28;20435;-71
2021/08/14 01:41:28;;;;;;;11.70;7.88;;;17.10;99.90;;;;;;5074230;28;20414;-71
2021/08/14 01:44:08;;;;;;;13.37;10.53;;;17.10;99.90;;;;;;5074436;28;20655;-70
2021/08/14 01:46:37;;;;;;;14.13;9.57;;;17.00;99.90;;;;;;5073379;28;20517;-70
2021/08/14 01:49:03;;;;;;;14.43;9.23;;;16.80;99.90;;;;;;5074361;28;20443;-71
2021/08/14 01:51:30;;;;;;;9.30;8.17;;;16.70;99.90;;;;;;5075109;28;20497;-70
2021/08/14 01:53:58;;;;;;;9.27;7.57;;;16.70;99.90;;;;;;5074225;28;20431;-71
2021/08/14 01:56:24;;;;;;;13.70;7.70;;;16.70;99.90;;;;;;5074149;28;20400;-70
2021/08/14 01:58:50;;;;;;;10.57;7.47;;;16.80;99.90;;;;;;5054778;28;20458;-70
2021/08/14 02:01:16;;;;;;;8.23;6.90;;;16.80;99.90;;;;;;5074451;28;20407;-70
2021/08/14 02:03:42;;;;;;;9.70;7.77;;;16.70;99.90;;;;;;5074549;28;20193;-70
2021/08/14 02:06:08;;;;;;;8.70;6.63;;;16.80;99.90;;;;;;5074137;28;20445;-70
2021/08/14 02:08:34;;;;;;;7.43;6.73;;;16.80;99.90;;;;;;5073185;28;20428;-70
2021/08/14 02:11:01;;;;;;;10.73;7.67;;;16.90;99.90;;;;;;5074692;28;20189;-71
2021/08/14 02:13:29;;;;;;;8.37;6.70;;;16.90;99.90;;;;;;5074372;28;20461;-69
2021/08/14 02:15:55;;;;;;;10.00;6.80;;;16.90;99.90;;;;;;5075350;28;20777;-70
2021/08/14 02:18:20;;;;;;;11.00;8.10;;;16.90;99.90;;;;;;5070225;28;20436;-70
2021/08/14 02:20:46;;;;;;;10.50;8.30;;;16.90;99.90;;;;;;5053692;28;20182;-70
2021/08/14 02:23:11;;;;;;;8.47;7.47;;;16.90;99.90;;;;;;5054138;28;20247;-70
2021/08/14 02:25:37;;;;;;;13.60;8.40;;;16.80;99.90;;;;;;5054014;28;20201;-70
2021/08/14 02:28:02;;;;;;;9.97;7.63;;;16.70;99.90;;;;;;5054092;28;20595;-70
2021/08/14 02:30:28;;;;;;;11.07;8.20;;;16.60;99.90;;;;;;5054825;28;20195;-70
2021/08/14 02:32:54;;;;;;;8.87;7.00;;;16.60;99.90;;;;;;5054090;28;20205;-70
2021/08/14 02:35:19;;;;;;;8.03;6.87;;;16.70;99.90;;;;;;5053407;28;20174;-70
2021/08/14 02:37:45;;;;;;;8.63;7.50;;;16.70;99.90;;;;;;5053877;28;20201;-69
2021/08/14 02:40:11;;;;;;;8.17;6.63;;;16.70;99.90;;;;;;5054540;28;20580;-69
2021/08/14 02:42:43;;;;;;;10.03;7.80;;;16.70;99.90;;;;;;5052987;28;20418;-70
2021/08/14 02:45:10;;;;;;;10.10;8.30;;;16.70;99.90;;;;;;5035760;28;20447;-69
2021/08/14 02:47:35;;;;;;;9.20;7.37;;;16.70;99.90;;;;;;5053465;28;20424;-70
2021/08/14 02:50:01;;;;;;;7.20;6.07;;;16.80;99.90;;;;;;5054525;28;20936;-70
2021/08/14 02:52:27;;;;;;;8.43;7.53;;;16.80;99.90;;;;;;5054482;28;20236;-70
2021/08/14 02:54:52;;;;;;;9.43;7.00;;;16.80;99.90;;;;;;5054425;28;20225;-70
2021/08/14 02:57:17;;;;;;;8.60;7.63;;;16.80;99.90;;;;;;5053916;28;20182;-70
2021/08/14 02:59:43;;;;;;;9.77;7.37;;;16.80;99.90;;;;;;5053976;28;20170;-70
2021/08/14 03:02:09;;;;;;;12.47;8.03;;;16.80;99.90;;;;;;5054657;28;20162;-70
2021/08/14 03:04:34;;;;;;;8.03;7.00;;;16.80;99.90;;;;;;5053691;28;20283;-70
2021/08/14 03:07:00;;;;;;;10.37;7.80;;;16.70;99.90;;;;;;5053504;28;20258;-71
2021/08/14 03:09:25;;;;;;;11.60;9.10;;;16.60;99.90;;;;;;5053173;28;20469;-70
2021/08/14 03:11:51;;;;;;;13.63;8.30;;;16.40;99.90;;;;;;5054820;28;20272;-70
2021/08/14 03:14:16;;;;;;;10.40;9.30;;;16.20;99.90;;;;;;5052846;28;20198;-71
2021/08/14 03:16:42;;;;;;;10.77;8.50;;;16.10;99.90;;;;;;5053466;28;20174;-70
2021/08/14 03:19:07;;;;;;;8.70;7.60;;;16.00;99.90;;;;;;5053131;28;20170;-70
2021/08/14 03:21:32;;;;;;;11.40;9.40;;;16.10;99.90;;;;;;5052856;28;20182;-70
2021/08/14 03:23:58;;;;;;;10.20;8.30;;;16.00;99.90;;;;;;5057120;28;20186;-70
2021/08/14 03:26:25;;;;;;;9.23;8.10;;;15.90;99.90;;;;;;5056928;28;20170;-70
2021/08/14 03:28:51;;;;;;;8.93;7.50;;;16.00;99.90;;;;;;5057012;28;20190;-70
2021/08/14 03:31:20;;;;;;;8.53;7.67;;;16.10;99.90;;;;;;5057124;28;20495;-70
2021/08/14 03:33:46;;;;;;;8.77;7.30;;;16.20;99.90;;;;;;5057711;28;20440;-70
2021/08/14 03:36:11;;;;;;;11.37;8.50;;;16.20;99.90;;;;;;5057257;28;20405;-70
2021/08/14 03:38:37;;;;;;;9.83;7.93;;;16.30;99.90;;;;;;5061507;28;20174;-69
2021/08/14 03:41:03;;;;;;;12.40;9.53;;;16.30;99.90;;;;;;5061962;28;20170;-69
2021/08/14 03:43:28;;;;;;;8.50;7.60;;;16.20;99.90;;;;;;5067531;28;20196;-70
2021/08/14 03:45:54;;;;;;;9.70;8.40;;;16.10;99.90;;;;;;5077074;28;20423;-70
2021/08/14 03:48:19;;;;;;;10.20;9.00;;;16.00;99.90;;;;;;5075921;28;20551;-70
2021/08/14 03:50:45;;;;;;;12.50;8.90;;;15.90;99.90;;;;;;5076571;28;20283;-70
2021/08/14 03:53:10;;;;;;;15.07;9.20;;;15.70;99.90;;;;;;5077268;28;20196;-70
2021/08/14 03:55:36;;;;;;;9.83;8.83;;;15.60;99.90;;;;;;5074400;28;20264;-70
2021/08/14 03:58:02;;;;;;;10.17;8.70;;;15.60;99.90;;;;;;5076405;28;20511;-70
2021/08/14 04:00:28;;;;;;;12.50;10.20;;;15.50;99.90;;;;;;5076943;28;20182;-70
2021/08/14 04:02:54;;;;;;;11.83;9.40;;;15.50;99.90;;;;;;5076939;28;20182;-69
2021/08/14 04:05:19;;;;;;;14.33;10.80;;;15.50;99.90;;;;;;5075277;28;20419;-70
2021/08/14 04:07:45;;;;;;;10.70;9.57;;;15.40;99.90;;;;;;5076271;28;20174;-70
2021/08/14 04:10:11;;;;;;;11.43;8.93;;;15.50;99.90;;;;;;5076173;28;20180;-70
2021/08/14 04:12:36;;;;;;;11.00;8.97;;;15.60;99.90;;;;;;5076328;28;20220;-70
2021/08/14 04:15:04;;;;;;;11.23;9.30;;;15.70;99.90;;;;;;5074666;28;20398;-70
2021/08/14 04:17:30;;;;;;;9.67;8.53;;;15.80;99.90;;;;;;5073801;28;20169;-71
2021/08/14 04:19:56;;;;;;;9.85;8.40;;;15.90;99.90;;;;;;5075349;28;20479;-71
2021/08/14 04:22:21;;;;;;;11.40;8.93;;;16.00;99.90;;;;;;5059891;28;20226;-70
2021/08/14 04:24:47;;;;;;;18.90;9.63;;;16.10;99.90;;;;;;5056016;28;20604;-70
2021/08/14 04:27:12;;;;;;;11.00;9.37;;;16.20;99.90;;;;;;5057586;28;20175;-69
2021/08/14 04:29:38;;;;;;;10.00;9.00;;;16.20;99.90;;;;;;5056081;28;20171;-70
2021/08/14 04:32:04;;;;;;;12.10;9.00;;;16.00;99.90;;;;;;5055867;28;20586;-70
2021/08/14 04:34:29;;;;;;;12.77;9.23;;;16.10;99.90;;;;;;5055042;28;20213;-70
2021/08/14 04:36:55;;;;;;;10.30;8.37;;;16.10;99.90;;;;;;5038993;28;20928;-70
2021/08/14 04:39:20;;;;;;;9.73;8.00;;;16.00;99.90;;;;;;5055815;28;20180;-70
2021/08/14 04:41:46;;;;;;;9.80;7.93;;;16.00;99.90;;;;;;5055730;28;20177;-71
2021/08/14 04:44:11;;;;;;;8.80;7.57;;;16.10;99.90;;;;;;5056280;28;20187;-71
2021/08/14 04:46:37;;;;;;;11.20;9.18;;;16.20;99.90;;;;;;5055891;28;20884;-71
2021/08/14 04:49:03;;;;;;;9.17;8.00;;;16.20;99.90;;;;;;5056140;28;20189;-71
2021/08/14 04:51:28;;;;;;;10.90;8.80;;;16.30;99.90;;;;;;5055659;28;20519;-70
2021/08/14 04:53:54;;;;;;;8.87;7.13;;;16.30;99.90;;;;;;5055384;28;20190;-71
2021/08/14 04:56:19;;;;;;;11.60;8.40;;;16.40;99.90;;;;;;5055586;28;20270;-71
2021/08/14 04:58:45;;;;;;;12.43;8.10;;;16.30;99.90;;;;;;5056795;28;20224;-71
2021/08/14 05:01:11;;;;;;;11.23;8.37;;;16.30;99.90;;;;;;5055908;28;20166;-70
2021/08/14 05:03:36;;;;;;;9.60;7.63;;;16.40;99.90;;;;;;5055921;28;20288;-71
2021/08/14 05:06:02;;;;;;;10.27;7.80;;;16.40;99.90;;;;;;5055134;28;20488;-70
2021/08/14 05:08:28;;;;;;;9.73;7.93;;;16.40;99.90;;;;;;5056286;28;20183;-71
2021/08/14 05:10:53;;;;;;;11.03;7.50;;;16.40;99.90;;;;;;5055439;28;20796;-71
2021/08/14 05:13:19;;;;;;;10.13;8.63;;;16.40;99.90;;;;;;5055598;28;20674;-70
2021/08/14 05:15:44;;;;;;;9.37;7.90;;;16.50;99.90;;;;;;5055151;28;20181;-71
2021/08/14 05:18:10;;;;;;;9.83;8.83;;;16.50;99.90;;;;;;5055713;28;20267;-71
2021/08/14 05:20:36;;;;;;;9.40;8.23;;;16.60;99.90;;;;;;5055780;28;20280;-71
2021/08/14 05:23:01;;;;;;;9.00;8.10;;;16.60;99.90;;;;;;5054911;28;20221;-71
2021/08/14 05:25:28;;;;;;;9.80;8.80;;;16.60;99.90;;;;;;5054590;28;20412;-71
2021/08/14 05:27:53;;;;;;;9.40;8.10;;;16.60;99.90;;;;;;5055129;28;20163;-70
2021/08/14 05:30:19;;;;;;;11.03;8.93;;;16.70;99.90;;;;;;5055988;28;20416;-70
2021/08/14 05:32:44;;;;;;;8.67;7.87;;;16.70;99.90;;;;;;5055310;28;20656;-70
2021/08/14 05:35:10;;;;;;;12.40;10.00;;;16.70;99.90;;;;;;5054250;28;20182;-71
2021/08/14 05:37:36;;;;;;;11.90;9.50;;;16.70;99.90;;;;;;5055273;28;20221;-71
2021/08/14 05:40:01;;;;;;;12.53;9.20;;;16.60;99.90;;;;;;5056120;28;20520;-71
2021/08/14 05:42:27;;;;;;;13.80;9.97;;;16.50;99.90;;;;;;5054623;28;20205;-71
2021/08/14 05:44:52;;;;;;;14.93;11.53;;;16.60;99.90;;;;;;5054895;28;20181;-71
2021/08/14 05:47:18;;;;;;;16.97;10.50;;;16.60;99.90;;;;;;5036593;28;20170;-71
2021/08/14 05:49:43;;;;;;;13.13;9.70;;;16.60;99.90;;;;;;5054625;28;20206;-70
2021/08/14 05:52:09;;;;;;;11.47;8.97;;;16.60;99.90;;;;;;5056231;28;20277;-70
2021/08/14 05:54:35;;;;;;;10.63;9.50;;;16.70;99.90;;;;;;5054480;28;20269;-70
2021/08/14 05:57:01;;;;;;;12.13;9.00;;;16.80;99.90;;;;;;5054579;28;20167;-70
2021/08/14 05:59:27;;;;;;;11.40;10.10;;;16.80;99.90;;;;;;5053245;28;20414;-70
2021/08/14 06:01:52;;;;;;;13.40;10.27;;;16.80;99.90;;;;;;5045390;28;20179;-70
2021/08/14 06:04:18;;;;;;;12.57;9.70;;;16.80;99.90;;;;;;5048353;28;20218;-71
2021/08/14 06:06:44;;;;;;;14.03;10.27;;;16.80;99.90;;;;;;5043364;28;20273;-71
2021/08/14 06:09:10;;;;;;;12.47;9.20;;;16.80;99.90;;;;;;5053931;28;20178;-71
2021/08/14 06:11:36;;;;;;;13.33;8.80;;;16.90;99.90;;;;;;5048230;28;20472;-72
2021/08/14 06:14:02;;;;;;;12.70;10.20;;;16.90;99.90;;;;;;5049048;28;20441;-71
2021/08/14 06:16:27;;;;;;;14.23;8.73;;;17.00;99.90;;;;;;5043180;28;20186;-70
2021/08/14 06:18:53;;;;;;;10.30;8.60;;;17.10;99.90;;;;;;5044365;28;20182;-70
2021/08/14 06:21:18;;;;;;;10.60;9.50;;;17.20;99.90;;;;;;5042928;28;20265;-71
2021/08/14 06:23:44;;;;;;;10.73;8.90;;;17.20;99.90;;;;;;5048921;28;20198;-70
2021/08/14 06:26:09;;;;;;;12.90;9.07;;;17.30;99.90;;;;;;5039536;28;20337;-70
2021/08/14 06:28:35;;;;;;;11.40;8.47;;;17.40;99.90;;;;;;5047133;28;20265;-70
2021/08/14 06:31:00;;;;;;;12.70;8.43;;;17.40;99.90;;;;;;5032063;28;20283;-70
2021/08/14 06:33:26;;;;;;;11.70;8.33;;;17.50;99.90;;;;;;5047900;28;20198;-70
2021/08/14 06:35:51;;;;;;;13.53;8.77;;;17.60;99.90;;;;;;5042592;28;20195;-71
2021/08/14 06:38:17;;;;;;;9.27;7.20;;;17.70;99.90;;;;;;5033851;28;20550;-70
2021/08/14 06:40:42;;;;;;;8.47;7.30;;;17.70;99.90;;;;;;5032458;28;20174;-70
2021/08/14 06:43:08;;;;;;;9.43;6.90;;;17.90;99.90;;;;;;5047591;28;20206;-71
2021/08/14 06:45:33;;;;;;;9.40;7.33;;;17.90;99.90;;;;;;5038800;28;20182;-71
2021/08/14 06:47:59;;;;;;;9.50;7.43;;;18.00;99.90;;;;;;5034201;28;20179;-71
2021/08/14 06:50:24;;;;;;;10.10;7.43;;;18.00;99.90;;;;;;5033489;28;20210;-71
2021/08/14 06:52:50;;;;;;;13.80;8.50;;;18.10;99.90;;;;;;5043407;28;20263;-70
2021/08/14 06:55:16;;;;;;;11.80;8.30;;;18.10;99.90;;;;;;5053678;28;20192;-71
2021/08/14 06:57:41;;;;;;;12.53;7.97;;;18.10;99.90;;;;;;5053340;28;20178;-71
2021/08/14 07:00:08;;;;;;;11.23;7.87;;;18.20;99.90;;;;;;5052837;28;20495;-71
2021/08/14 07:02:34;;;;;;;12.93;7.97;;;18.30;99.90;;;;;;5054881;28;20223;-72
2021/08/14 07:04:59;;;;;;;13.05;7.93;;;18.30;99.90;;;;;;5056778;28;20968;-71
2021/08/14 07:07:25;;;;;;;11.60;7.23;;;18.40;99.90;;;;;;5058353;28;20177;-71
2021/08/14 07:09:51;;;;;;;13.57;7.17;;;18.50;99.90;;;;;;5070668;28;20175;-70
2021/08/14 07:12:17;;;;;;;9.60;5.90;;;18.60;99.90;;;;;;5074939;28;20250;-71
2021/08/14 07:14:42;;;;;;;9.13;5.87;;;18.70;99.90;;;;;;5048207;28;20448;-71
2021/08/14 07:17:08;;;;;;;12.97;5.30;;;18.90;99.90;;;;;;5031969;28;20182;-70
2021/08/14 07:19:34;;;;;;;8.73;5.00;;;18.90;99.90;;;;;;5045628;28;20170;-71
2021/08/14 07:21:59;;;;;;;8.40;5.80;;;18.90;99.90;;;;;;5035408;28;20244;-71
2021/08/14 07:24:25;;;;;;;8.90;4.53;;;19.00;99.90;;;;;;5064655;28;20293;-71
2021/08/14 07:26:50;;;;;;;5.23;4.63;;;19.10;99.90;;;;;;5053149;28;20177;-72
2021/08/14 07:29:16;;;;;;;6.63;4.40;;;19.10;99.90;;;;;;5053510;28;20640;-72
2021/08/14 07:31:41;;;;;;;9.40;5.05;;;19.10;99.90;;;;;;5052509;28;20892;-72
2021/08/14 07:34:07;;;;;;;5.33;4.77;;;19.20;99.90;;;;;;5052899;28;20663;-73
2021/08/14 07:36:33;;;;;;;8.60;4.60;;;19.30;99.90;;;;;;5053651;28;20205;-78
2021/08/14 07:38:58;;;;;;;8.33;4.47;;;19.40;99.90;;;;;;5053233;28;20272;-75
2021/08/14 07:41:27;;;;;;;8.93;5.17;;;19.50;99.90;;;;;;5044743;28;20697;-73
2021/08/14 07:43:57;;;;;;;8.43;5.83;;;19.60;99.90;;;;;;5035193;28;20609;-73
2021/08/14 07:46:22;;;;;;;8.90;5.60;;;19.60;99.90;;;;;;5054399;28;20832;-71
2021/08/14 07:48:48;;;;;;;7.87;5.50;;;19.70;99.90;;;;;;5052900;28;20432;-72
2021/08/14 07:51:14;;;;;;;9.07;4.80;;;19.80;99.90;;;;;;5036723;28;20201;-71
2021/08/14 07:53:39;;;;;;;5.10;4.60;;;19.90;99.90;;;;;;5048717;28;20464;-71
2021/08/14 07:56:05;;;;;;;9.40;5.77;;;19.90;99.90;;;;;;5041546;28;20187;-71
2021/08/14 07:58:32;;;;;;;7.03;5.70;;;20.00;99.90;;;;;;5033772;28;20729;-71
2021/08/14 08:00:58;;;;;;;13.30;5.00;;;20.10;99.90;;;;;;5054341;28;20158;-71
2021/08/14 08:03:23;;;;;;;8.10;5.50;;;20.10;99.90;;;;;;5049092;28;20510;-70
2021/08/14 08:05:49;;;;;;;10.63;4.60;;;20.20;99.90;;;;;;5045861;28;20187;-71
2021/08/14 08:08:14;;;;;;;8.20;5.03;;;20.20;99.90;;;;;;5042261;28;20187;-71
2021/08/14 08:10:40;;;;;;;6.20;4.87;;;20.20;99.90;;;;;;5037922;28;20225;-71
2021/08/14 08:13:06;;;;;;;10.63;5.10;;;20.30;99.90;;;;;;5040116;28;20194;-70
2021/08/14 08:15:31;;;;;;;8.77;4.60;;;20.40;99.90;;;;;;5038539;28;20175;-71
2021/08/14 08:18:00;;;;;;;5.70;4.33;;;20.50;99.90;;;;;;5055466;28;20240;-70
2021/08/14 08:20:25;;;;;;;5.37;4.53;;;20.50;99.90;;;;;;5056655;28;20201;-71
2021/08/14 08:22:51;;;;;;;8.30;4.90;;;20.60;99.90;;;;;;5057757;28;20440;-70
2021/08/14 08:25:18;;;;;;;9.87;4.50;;;20.70;99.90;;;;;;5056081;28;20191;-71
2021/08/14 08:27:47;;;;;;;7.85;4.70;;;20.70;99.90;;;;;;5034850;28;20437;-71
2021/08/14 08:30:14;;;;;;;11.07;5.40;;;20.70;99.90;;;;;;5027671;28;20247;-70
2021/08/14 08:32:40;;;;;;;8.13;4.97;;;20.70;99.90;;;;;;5035696;28;20431;-71
2021/08/14 08:35:06;;;;;;;12.73;5.73;;;20.80;99.90;;;;;;5042184;28;20186;-73
2021/08/14 08:37:32;;;;;;;8.83;4.60;;;21.00;99.90;;;;;;5056549;28;20682;-73
2021/08/14 08:39:58;;;;;;;7.40;4.77;;;21.10;99.90;;;;;;5056868;28;20487;-71
2021/08/14 08:42:24;;;;;;;11.70;5.97;;;20.90;99.80;;;;;;5056212;28;20178;-71
2021/08/14 08:44:49;;;;;;;7.00;4.53;;;20.90;99.90;;;;;;5065058;28;20214;-72
2021/08/14 08:47:17;;;;;;;7.80;4.10;;;21.00;99.90;;;;;;5055319;28;20174;-71
2021/08/14 08:49:53;;;;;;;6.63;4.80;;;21.00;99.70;;;;;;5055698;28;20221;-71
2021/08/14 08:52:20;;;;;;;8.13;4.20;;;21.10;99.10;;;;;;5054182;28;20440;-71
2021/08/14 08:54:50;;;;;;;6.30;4.50;;;21.20;98.80;;;;;;5055309;28;20471;-72
2021/08/14 08:57:16;;;;;;;8.90;4.73;;;21.30;98.20;;;;;;5055118;28;20411;-72
2021/08/14 08:59:45;;;;;;;6.50;4.37;;;21.40;98.30;;;;;;5054802;28;20424;-72
2021/08/14 09:02:31;;;;;;;6.13;4.50;;;21.50;98.50;;;;;;5055239;28;20431;-72
2021/08/14 09:05:14;;;;;;;6.83;4.40;;;21.70;98.80;;;;;;5055153;28;20180;-72
2021/08/14 09:07:41;;;;;;;7.55;4.35;;;21.90;98.50;;;;;;5054958;28;20404;-72
2021/08/14 09:10:13;;;;;;;5.00;3.83;;;21.90;97.80;;;;;;5055225;28;20182;-71
2021/08/14 09:12:44;;;;;;;6.80;4.20;;;22.00;97.70;;;;;;5054490;28;20909;-72
2021/08/14 09:15:19;;;;;;;8.97;4.67;;;22.10;97.30;;;;;;5043531;28;20838;-71
2021/08/14 09:17:48;;;;;;;5.50;3.97;;;22.20;97.30;;;;;;5045726;28;20494;-71
2021/08/14 09:20:19;;;;;;;6.40;4.00;;;22.30;96.80;;;;;;5038834;28;20409;-72
2021/08/14 09:23:01;;;;;;;7.67;3.60;;;22.40;96.50;;;;;;5050814;28;20446;-72
2021/08/14 09:25:44;;;;;;;7.20;3.60;;;22.40;95.80;;;;;;5049607;28;20417;-71
2021/08/14 09:28:11;;;;;;;6.70;4.27;;;22.40;94.80;;;;;;5067428;28;20776;-73
2021/08/14 09:30:56;;;;;;;5.53;3.90;;;22.40;94.80;;;;;;5055336;28;20420;-72
2021/08/14 09:33:23;;;;;;;6.77;4.10;;;22.40;94.20;;;;;;5054188;28;20525;-72
2021/08/14 09:35:56;;;;;;;6.70;4.10;;;22.40;94.20;;;;;;5054870;28;20444;-73
2021/08/14 09:38:23;;;;;;;5.70;3.93;;;22.30;94.30;;;;;;5054667;28;20783;-70
2021/08/14 09:40:48;;;;;;;8.23;3.83;;;22.40;94.20;;;;;;5054699;28;20413;-71
2021/08/14 09:43:32;;;;;;;7.97;4.27;;;22.40;93.50;;;;;;5055173;28;20440;-71
2021/08/14 09:45:57;;;;;;;7.03;3.60;;;22.30;93.80;;;;;;5054906;28;20166;-71
2021/08/14 09:48:24;;;;;;;5.47;4.07;;;22.30;95.30;;;;;;5055271;28;20415;-71
2021/08/14 09:50:50;;;;;;;6.37;3.70;;;22.50;96.10;;;;;;5054564;28;20251;-72
2021/08/14 09:53:18;;;;;;;4.80;3.63;;;22.60;95.40;;;;;;5054841;28;20441;-72
2021/08/14 09:55:50;;;;;;;4.93;3.53;;;22.70;95.20;;;;;;5054574;28;20527;-71
2021/08/14 09:58:20;;;;;;;7.97;3.70;;;22.70;94.60;;;;;;5054650;28;20416;-71
2021/08/14 10:00:48;;;;;;;6.50;4.50;;;22.80;94.20;;;;;;5054658;28;20409;-72
2021/08/14 10:03:15;;;;;;;7.47;3.50;;;22.80;93.20;;;;;;5050073;28;20460;-72
2021/08/14 10:05:42;;;;;;;6.90;4.07;;;22.80;94.10;;;;;;5048762;28;20557;-71
2021/08/14 10:08:07;;;;;;;6.63;3.60;;;22.90;94.00;;;;;;5050357;28;20400;-72
2021/08/14 10:10:33;;;;;;;10.10;4.90;;;22.90;94.00;;;;;;5048846;28;20182;-72
2021/08/14 10:13:01;;;;;;;5.60;3.30;;;23.10;93.90;;;;;;5051644;28;20205;-72
2021/08/14 10:15:27;;;;;;;7.17;4.07;;;23.20;93.50;;;;;;5061996;28;20729;-72
2021/08/14 10:17:54;;;;;;;7.93;3.40;;;23.40;93.50;;;;;;5033481;28;20458;-71
2021/08/14 10:20:20;;;;;;;5.80;3.30;;;23.40;93.20;;;;;;5050580;28;20443;-72
2021/08/14 10:22:46;;;;;;;6.17;3.50;;;23.50;92.50;;;;;;5051254;28;20435;-71
2021/08/14 10:25:16;;;;;;;6.10;3.40;;;23.60;91.30;;;;;;5048322;28;20523;-71
2021/08/14 10:28:04;;;;;;;10.20;3.50;;;23.60;90.90;;;;;;5039607;28;20425;-72
2021/08/14 10:30:47;;;;;;;6.07;3.80;;;23.40;90.20;;;;;;5044123;28;20429;-71
2021/08/14 10:33:27;;;;;;;7.20;3.30;;;23.40;90.30;;;;;;5054952;28;20489;-71
2021/08/14 10:35:57;;;;;;;3.83;2.53;;;23.40;89.50;;;;;;5059643;28;20423;-71
2021/08/14 10:38:44;;;;;;;6.90;3.55;;;23.40;87.90;;;;;;5049835;28;20408;-71
2021/08/14 10:41:11;;;;;;;2.83;2.63;;;23.40;85.90;;;;;;5049515;28;20198;-71
2021/08/14 10:43:52;;;;;;;5.07;3.03;;;23.30;81.90;;;;;;5043382;28;20544;-71
2021/08/14 10:46:42;;;;;;;4.57;3.40;;;23.40;80.20;;;;;;5063601;28;20843;-71
2021/08/14 10:49:13;;;;;;;4.10;3.23;;;23.50;80.20;;;;;;5044016;28;20444;-70
2021/08/14 10:51:48;;;;;;;6.60;3.40;;;23.40;76.10;;;;;;5040202;28;20514;-71
2021/08/14 10:54:35;;;;;;;6.33;3.10;;;23.20;74.50;;;;;;5040538;28;20471;-70
2021/08/14 10:57:00;;;;;;;4.40;3.10;;;23.20;77.90;;;;;;5042739;28;20452;-71
2021/08/14 10:59:38;;;;;;;5.40;3.10;;;23.20;80.20;;;;;;5050519;28;20931;-71
2021/08/14 11:02:06;;;;;;;6.80;3.80;;;23.20;83.30;;;;;;5049859;28;20411;-71
2021/08/14 11:04:33;;;;;;;4.50;3.63;;;23.20;84.40;;;;;;5038160;28;20679;-72
2021/08/14 11:07:19;;;;;;;5.63;3.60;;;23.30;84.30;;;;;;5040824;28;20419;-71
2021/08/14 11:09:47;;;;;;;7.00;3.67;;;23.40;84.70;;;;;;5041404;28;20670;-72
2021/08/14 11:12:39;;;;;;;6.13;4.10;;;23.30;84.00;;;;;;5047988;28;20464;-72
2021/08/14 11:15:25;;;;;;;6.60;3.43;;;23.30;81.50;;;;;;5025969;28;20496;-72
2021/08/14 11:18:01;;;;;;;9.27;4.40;;;23.30;78.80;;;;;;5031353;28;20421;-72
2021/08/14 11:20:30;;;;;;;5.03;3.80;;;23.30;77.90;;;;;;5038769;28;20431;-72
2021/08/14 11:22:57;;;;;;;4.00;2.90;;;23.30;78.50;;;;;;5042726;28;20460;-70
2021/08/14 11:25:23;;;;;;;9.73;3.00;;;23.30;80.20;;;;;;5046259;28;20490;-71
2021/08/14 11:28:04;;;;;;;6.57;3.37;;;23.30;81.90;;;;;;5052120;28;20786;-71
2021/08/14 11:30:42;;;;;;;6.38;3.30;;;23.40;83.00;;;;;;5049300;28;20400;-71
2021/08/14 11:33:11;;;;;;;5.80;3.30;;;23.40;83.10;;;;;;5041421;28;20719;-70
2021/08/14 11:35:40;;;;;;;6.63;3.97;;;23.50;83.60;;;;;;5037564;28;21076;-71
2021/08/14 11:38:08;;;;;;;10.33;4.10;;;23.60;83.40;;;;;;5058202;28;20189;-70
2021/08/14 11:40:35;;;;;;;6.20;4.10;;;23.50;82.90;;;;;;5049397;28;20515;-73
2021/08/14 11:43:12;;;;;;;5.17;3.27;;;23.50;79.80;;;;;;5049485;28;20600;-71
2021/08/14 11:45:39;;;;;;;8.20;3.93;;;23.50;79.90;;;;;;5050574;28;21180;-71
2021/08/14 11:48:14;;;;;;;3.57;3.00;;;23.40;80.50;;;;;;5053862;28;20929;-71
2021/08/14 11:50:41;;;;;;;4.90;3.70;;;23.40;80.90;;;;;;5053574;28;20419;-71
2021/08/14 11:53:08;;;;;;;5.30;3.10;;;23.40;81.40;;;;;;5053060;28;20502;-71
2021/08/14 11:55:34;;;;;;;4.47;3.13;;;23.40;80.80;;;;;;5052185;28;20536;-71
2021/08/14 11:58:00;;;;;;;5.93;5.27;;;23.30;80.20;;;;;;5051658;28;20455;-70
2021/08/14 12:00:37;;;;;;;6.70;4.20;;;23.40;81.00;;;;;;5053013;28;20432;-68
2021/08/14 12:03:18;;;;;;;4.80;4.20;;;23.50;84.50;;;;;;5054108;28;20259;-69
2021/08/14 12:05:46;;;;;;;7.50;3.37;;;23.50;84.30;;;;;;5036449;28;20427;-69
2021/08/14 12:08:31;;;;;;;6.07;3.70;;;23.60;81.10;;;;;;5035268;28;20439;-69
2021/08/14 12:11:01;;;;;;;5.10;3.67;;;23.70;80.70;;;;;;5054278;28;20827;-67
2021/08/14 12:13:27;;;;;;;5.80;3.33;;;23.60;77.40;;;;;;5054331;28;20444;-68
2021/08/14 12:16:09;;;;;;;4.73;3.43;;;23.50;79.30;;;;;;5053518;28;20477;-66
2021/08/14 12:18:35;;;;;;;6.60;4.20;;;23.50;81.10;;;;;;5052453;28;20201;-68
2021/08/14 12:21:03;;;;;;;5.90;4.20;;;23.70;80.30;;;;;;5053830;28;20436;-68
2021/08/14 12:23:30;;;;;;;5.77;3.70;;;23.70;81.20;;;;;;5053940;28;20948;-67
2021/08/14 12:26:02;;;;;;;4.80;3.30;;;23.90;79.30;;;;;;5035000;28;20408;-66
2021/08/14 12:28:29;;;;;;;6.03;4.20;;;23.90;80.40;;;;;;5053134;28;20420;-67
2021/08/14 12:30:56;;;;;;;4.67;3.70;;;23.90;79.40;;;;;;5054352;28;20456;-67
2021/08/14 12:33:30;;;;;;;6.60;4.30;;;23.90;81.50;;;;;;5051110;28;20455;-68
2021/08/14 12:35:58;;;;;;;6.60;3.30;;;23.90;81.60;;;;;;5061500;28;20189;-68
2021/08/14 12:38:24;;;;;;;7.03;3.30;;;24.00;82.30;;;;;;5034112;28;20462;-68
2021/08/14 12:40:49;;;;;;;8.93;3.20;;;23.90;80.80;;;;;;5053788;28;20432;-67
2021/08/14 12:43:19;;;;;;;5.30;3.20;;;24.00;81.70;;;;;;5047605;28;20337;-70
2021/08/14 12:45:45;;;;;;;5.00;3.50;;;24.00;79.70;;;;;;5052191;28;20187;-71